createdAt,value
2022-11-29T00:01:18.342Z,7.55
2022-11-29T00:04:21.186Z,6.95
2022-11-29T00:07:23.746Z,5.93
2022-11-29T00:10:26.975Z,6.93
2022-11-29T00:13:29.500Z,6.93
2022-11-29T00:16:32.715Z,7.90
2022-11-29T00:19:36.455Z,6.72
2022-11-29T00:22:39.372Z,7.97
2022-11-29T00:25:41.927Z,7.25
2022-11-29T00:28:44.827Z,7.90
2022-11-29T00:31:47.462Z,7.93
2022-11-29T00:34:50.288Z,8.23
2022-11-29T00:37:53.057Z,7.30
2022-11-29T00:40:56.039Z,7.18
2022-11-29T00:43:58.650Z,6.45
2022-11-29T00:47:01.705Z,7.03
2022-11-29T00:50:05.091Z,6.68
2022-11-29T00:53:07.887Z,7.83
2022-11-29T00:56:10.372Z,5.85
2022-11-29T00:59:13.170Z,7.10
2022-11-29T01:02:15.750Z,7.60
2022-11-29T01:05:18.681Z,7.65
2022-11-29T01:08:21.211Z,7.37
2022-11-29T01:11:26.842Z,7.03
2022-11-29T01:14:29.337Z,7.15
2022-11-29T01:17:32.597Z,6.60
2022-11-29T01:20:35.183Z,6.95
2022-11-29T01:23:38.160Z,7.67
2022-11-29T01:26:40.738Z,7.75
2022-11-29T01:29:43.886Z,7.70
2022-11-29T01:32:46.571Z,8.38
2022-11-29T01:35:54.537Z,7.53
2022-11-29T01:38:59.575Z,6.33
2022-11-29T01:42:03.084Z,6.80
2022-11-29T01:45:26.349Z,7.45
2022-11-29T01:48:31.156Z,7.15
2022-11-29T01:51:34.874Z,7.47
2022-11-29T01:54:41.236Z,6.73
2022-11-29T01:57:44.057Z,6.60
2022-11-29T02:00:47.432Z,6.25
2022-11-29T02:03:50.384Z,6.85
2022-11-29T02:06:53.514Z,6.45
2022-11-29T02:09:56.195Z,6.23
2022-11-29T02:13:11.786Z,8.88
2022-11-29T02:16:37.468Z,6.70
2022-11-29T02:19:53.237Z,7.55
2022-11-29T02:23:07.662Z,7.20
2022-11-29T02:26:58.674Z,6.37
2022-11-29T02:30:09.980Z,7.15
2022-11-29T02:33:12.824Z,6.80
2022-11-29T02:36:41.459Z,6.30
2022-11-29T02:40:21.654Z,7.87
2022-11-29T02:43:33.430Z,6.47
2022-11-29T02:47:15.852Z,6.28
2022-11-29T02:50:42.355Z,7.22
2022-11-29T02:53:53.804Z,6.65
2022-11-29T02:57:41.410Z,5.78
2022-11-29T03:00:55.873Z,7.43
2022-11-29T03:04:07.676Z,6.30
2022-11-29T03:07:34.388Z,7.87
2022-11-29T03:11:08.251Z,5.97
2022-11-29T03:14:28.891Z,6.90
2022-11-29T03:17:34.316Z,6.10
2022-11-29T03:20:39.995Z,6.47
2022-11-29T03:23:48.769Z,7.32
2022-11-29T03:27:02.163Z,6.47
2022-11-29T03:30:10.904Z,6.32
2022-11-29T03:33:29.915Z,6.57
2022-11-29T03:36:44.634Z,6.30
2022-11-29T03:39:55.077Z,8.05
2022-11-29T03:43:01.346Z,6.85
2022-11-29T03:46:09.475Z,7.45
2022-11-29T03:49:24.835Z,6.47
2022-11-29T03:52:49.912Z,7.07
2022-11-29T03:56:00.285Z,5.95
2022-11-29T03:59:08.822Z,6.85
2022-11-29T04:02:25.167Z,7.25
2022-11-29T04:05:43.933Z,7.97
2022-11-29T04:08:56.207Z,6.05
2022-11-29T04:12:18.017Z,8.27
2022-11-29T04:15:58.373Z,7.03
2022-11-29T04:19:39.564Z,7.07
2022-11-29T04:23:12.878Z,7.53
2022-11-29T04:26:37.695Z,8.50
2022-11-29T04:30:02.159Z,6.30
2022-11-29T04:33:15.317Z,5.78
2022-11-29T04:37:08.350Z,6.70
2022-11-29T04:40:16.921Z,6.40
2022-11-29T04:43:44.172Z,6.22
2022-11-29T04:46:55.035Z,6.93
2022-11-29T04:50:17.210Z,7.20
2022-11-29T04:53:26.185Z,7.12
2022-11-29T04:57:04.157Z,6.03
2022-11-29T05:00:11.366Z,6.12
2022-11-29T05:03:23.059Z,5.93
2022-11-29T05:06:40.964Z,6.10
2022-11-29T05:09:47.472Z,5.97
2022-11-29T05:13:27.720Z,5.40
2022-11-29T05:16:49.516Z,5.15
2022-11-29T05:20:20.552Z,5.97
2022-11-29T05:23:32.132Z,5.25
2022-11-29T05:26:56.405Z,6.50
2022-11-29T05:30:19.231Z,5.87
2022-11-29T05:33:52.693Z,6.70
2022-11-29T05:37:20.291Z,6.75
2022-11-29T05:40:51.316Z,6.50
2022-11-29T05:43:53.694Z,5.65
2022-11-29T05:47:01.574Z,6.23
2022-11-29T05:50:11.580Z,6.57
2022-11-29T05:53:33.431Z,7.15
2022-11-29T05:56:47.928Z,6.00
2022-11-29T05:59:51.574Z,7.00
2022-11-29T06:03:11.052Z,6.03
2022-11-29T06:06:19.167Z,5.82
2022-11-29T06:09:28.127Z,6.05
2022-11-29T06:12:35.871Z,6.32
2022-11-29T06:16:16.380Z,6.37
2022-11-29T06:19:37.857Z,5.83
2022-11-29T06:22:40.551Z,7.25
2022-11-29T06:26:03.838Z,6.78
2022-11-29T06:29:57.717Z,6.62
2022-11-29T06:33:18.016Z,6.60
2022-11-29T06:36:25.321Z,5.90
2022-11-29T06:39:28.514Z,5.47
2022-11-29T06:42:31.041Z,6.82
2022-11-29T06:45:34.199Z,5.20
2022-11-29T06:48:46.882Z,6.95
2022-11-29T06:52:08.013Z,6.33
2022-11-29T06:55:29.650Z,6.32
2022-11-29T06:58:41.258Z,5.82
2022-11-29T07:02:10.869Z,5.78
2022-11-29T07:05:30.318Z,6.45
2022-11-29T07:08:33.288Z,6.03
2022-11-29T07:11:36.466Z,7.03
2022-11-29T07:14:39.296Z,6.97
2022-11-29T07:18:12.701Z,6.80
2022-11-29T07:21:30.436Z,7.20
2022-11-29T07:24:48.191Z,7.27
2022-11-29T07:28:19.424Z,7.93
2022-11-29T07:31:40.244Z,6.60
2022-11-29T07:35:07.718Z,6.65
2022-11-29T07:38:40.649Z,7.03
2022-11-29T07:41:52.914Z,7.63
2022-11-29T07:45:21.589Z,7.18
2022-11-29T07:48:24.369Z,6.93
2022-11-29T07:51:27.122Z,8.00
2022-11-29T07:54:30.379Z,7.03
2022-11-29T07:57:33.224Z,8.10
2022-11-29T08:00:35.898Z,7.90
2022-11-29T08:03:38.721Z,8.20
2022-11-29T08:06:41.188Z,8.45
2022-11-29T08:09:44.386Z,7.43
2022-11-29T08:12:52.752Z,8.13
2022-11-29T08:15:55.556Z,8.63
2022-11-29T08:18:58.224Z,8.13
2022-11-29T08:22:00.975Z,7.93
2022-11-29T08:25:04.545Z,8.10
2022-11-29T08:28:07.599Z,8.27
2022-11-29T08:31:12.423Z,7.60
2022-11-29T08:34:15.261Z,8.35
2022-11-29T08:37:17.783Z,7.60
2022-11-29T08:40:21.034Z,8.57
2022-11-29T08:43:23.513Z,8.77
2022-11-29T08:46:46.352Z,7.55
2022-11-29T08:50:01.306Z,8.35
2022-11-29T08:53:22.762Z,8.23
2022-11-29T08:57:10.148Z,8.82
2022-11-29T08:59:47.905Z,8.57
2022-11-29T09:02:50.483Z,8.90
2022-11-29T09:05:53.762Z,9.88
2022-11-29T09:08:56.878Z,9.38
2022-11-29T09:11:59.669Z,9.10
2022-11-29T09:15:06.591Z,9.43
2022-11-29T09:18:09.530Z,10.57
2022-11-29T09:21:13.768Z,8.52
2022-11-29T09:24:16.770Z,10.05
2022-11-29T09:27:19.210Z,9.82
2022-11-29T09:30:23.848Z,9.27
2022-11-29T09:33:26.558Z,9.52
2022-11-29T09:36:30.300Z,10.70
2022-11-29T09:39:33.443Z,10.50
2022-11-29T09:42:45.594Z,10.38
2022-11-29T09:45:53.780Z,9.67
2022-11-29T09:49:22.147Z,8.25
2022-11-29T09:52:40.401Z,9.80
2022-11-29T09:55:50.047Z,11.38
2022-11-29T09:58:58.076Z,10.70
2022-11-29T10:02:33.138Z,12.60
2022-11-29T10:05:41.604Z,9.55
2022-11-29T10:08:47.989Z,13.93
2022-11-29T10:12:01.781Z,11.57
2022-11-29T10:15:14.129Z,11.60
2022-11-29T10:18:21.823Z,12.73
2022-11-29T10:21:30.629Z,13.23
2022-11-29T10:24:33.962Z,12.35
2022-11-29T10:27:39.240Z,11.65
2022-11-29T10:30:43.381Z,12.82
2022-11-29T10:33:46.068Z,11.87
2022-11-29T10:36:51.142Z,12.30
2022-11-29T10:40:00.620Z,13.05
2022-11-29T10:43:04.214Z,11.85
2022-11-29T10:46:15.571Z,13.93
2022-11-29T10:49:20.189Z,12.33
2022-11-29T10:52:23.563Z,14.27
2022-11-29T10:55:26.371Z,14.38
2022-11-29T10:58:30.193Z,14.43
2022-11-29T11:01:37.067Z,12.77
2022-11-29T11:04:45.656Z,12.87
2022-11-29T11:07:57.378Z,14.68
2022-11-29T11:11:02.116Z,14.07
2022-11-29T11:14:09.642Z,13.98
2022-11-29T11:17:26.380Z,13.70
2022-11-29T11:20:31.074Z,13.57
2022-11-29T11:23:42.368Z,13.75
2022-11-29T11:26:45.964Z,14.32
2022-11-29T11:29:52.477Z,13.20
2022-11-29T11:33:22.094Z,13.88
2022-11-29T11:36:27.434Z,15.37
2022-11-29T11:39:30.313Z,14.60
2022-11-29T11:42:38.413Z,15.07
2022-11-29T11:45:41.185Z,16.12
2022-11-29T11:48:43.735Z,12.85
2022-11-29T11:51:46.802Z,12.83
2022-11-29T11:54:58.313Z,14.20
2022-11-29T11:58:09.028Z,14.25
2022-11-29T12:01:12.787Z,13.27
2022-11-29T12:04:25.348Z,14.45
2022-11-29T12:08:07.438Z,14.03
2022-11-29T12:11:09.636Z,13.90
2022-11-29T12:14:21.820Z,15.07
2022-11-29T12:17:43.928Z,13.82
2022-11-29T12:20:56.531Z,14.77
2022-11-29T12:24:11.102Z,13.07
2022-11-29T12:27:15.569Z,12.85
2022-11-29T12:30:19.251Z,12.13
2022-11-29T12:33:43.062Z,12.90
2022-11-29T12:37:04.265Z,13.15
2022-11-29T12:40:21.741Z,12.27
2022-11-29T12:43:43.339Z,12.35
2022-11-29T12:47:02.075Z,12.65
2022-11-29T12:50:35.194Z,12.65
2022-11-29T12:53:59.510Z,13.18
2022-11-29T12:57:35.284Z,13.63
2022-11-29T13:00:53.954Z,13.90
2022-11-29T13:04:03.803Z,15.07
2022-11-29T13:07:30.823Z,14.13
2022-11-29T13:10:54.975Z,15.18
2022-11-29T13:14:34.783Z,14.50
2022-11-29T13:17:53.821Z,14.05
2022-11-29T13:21:26.077Z,13.45
2022-11-29T13:24:36.059Z,13.73
2022-11-29T13:27:49.411Z,14.93
2022-11-29T13:30:57.045Z,14.33
2022-11-29T13:34:18.033Z,15.38
2022-11-29T13:37:26.581Z,14.35
2022-11-29T13:40:40.334Z,15.23
2022-11-29T13:43:51.565Z,14.75
2022-11-29T13:47:06.816Z,13.37
2022-11-29T13:50:40.250Z,13.93
2022-11-29T13:53:48.422Z,13.80
2022-11-29T13:57:10.940Z,13.43
2022-11-29T14:00:55.081Z,12.73
2022-11-29T14:04:12.975Z,13.83
2022-11-29T14:07:19.603Z,12.68
2022-11-29T14:10:29.172Z,12.73
2022-11-29T14:13:37.733Z,13.88
2022-11-29T14:16:43.665Z,12.95
2022-11-29T14:19:46.101Z,12.70
2022-11-29T14:23:05.558Z,14.25
2022-11-29T14:26:08.101Z,12.65
2022-11-29T14:29:55.232Z,12.15
2022-11-29T14:33:10.031Z,12.37
2022-11-29T14:36:18.863Z,12.57
2022-11-29T14:39:56.962Z,13.45
2022-11-29T14:43:01.909Z,13.65
2022-11-29T14:46:16.607Z,13.32
2022-11-29T14:49:25.083Z,14.82
2022-11-29T14:52:32.079Z,13.20
2022-11-29T14:55:36.980Z,13.40
2022-11-29T14:58:39.489Z,14.02
2022-11-29T15:01:44.052Z,14.77
2022-11-29T15:04:48.883Z,13.90
2022-11-29T15:08:16.579Z,14.73
2022-11-29T15:11:38.097Z,14.32
2022-11-29T15:14:47.408Z,14.43
2022-11-29T15:18:11.525Z,14.50
2022-11-29T15:21:14.264Z,14.48
2022-11-29T15:24:18.072Z,14.33
2022-11-29T15:27:21.886Z,14.70
2022-11-29T15:30:30.411Z,15.85
2022-11-29T15:33:34.984Z,15.27
2022-11-29T15:36:43.555Z,14.68
2022-11-29T15:39:46.444Z,15.30
2022-11-29T15:43:00.337Z,16.55
2022-11-29T15:46:03.541Z,15.30
2022-11-29T15:49:26.505Z,15.70
2022-11-29T15:52:35.864Z,16.65
2022-11-29T15:55:38.429Z,15.03
2022-11-29T15:58:41.408Z,15.63
2022-11-29T16:01:46.617Z,15.38
2022-11-29T16:04:51.109Z,15.18
2022-11-29T16:07:56.603Z,16.62
2022-11-29T16:11:00.498Z,15.73
2022-11-29T16:14:22.539Z,14.05
2022-11-29T16:17:28.016Z,15.63
2022-11-29T16:20:31.030Z,14.50
2022-11-29T16:23:38.706Z,15.27
2022-11-29T16:26:44.120Z,15.23
2022-11-29T16:29:47.581Z,14.60
2022-11-29T16:32:55.718Z,16.42
2022-11-29T16:36:26.749Z,14.02
2022-11-29T16:39:29.591Z,13.77
2022-11-29T16:42:33.741Z,14.83
2022-11-29T16:45:43.777Z,15.10
2022-11-29T16:48:48.473Z,15.35
2022-11-29T16:51:51.818Z,15.93
2022-11-29T16:54:54.743Z,16.67
2022-11-29T16:57:57.255Z,15.87
2022-11-29T17:01:18.897Z,16.30
2022-11-29T17:04:23.876Z,16.37
2022-11-29T17:07:34.177Z,15.20
2022-11-29T17:10:37.206Z,15.23
2022-11-29T17:13:40.183Z,13.80
2022-11-29T17:16:43.098Z,14.25
2022-11-29T17:19:47.115Z,12.95
2022-11-29T17:22:49.837Z,13.52
2022-11-29T17:25:59.728Z,13.75
2022-11-29T17:29:02.314Z,15.67
2022-11-29T17:32:05.474Z,14.38
2022-11-29T17:35:08.302Z,14.27
2022-11-29T17:38:11.157Z,14.25
2022-11-29T17:41:16.032Z,14.55
2022-11-29T17:44:18.958Z,12.87
2022-11-29T17:47:21.869Z,14.15
2022-11-29T17:50:24.748Z,13.30
2022-11-29T17:53:27.299Z,12.93
2022-11-29T17:56:31.036Z,14.80
2022-11-29T17:59:33.922Z,14.07
2022-11-29T18:02:36.794Z,13.57
2022-11-29T18:05:39.736Z,14.95
2022-11-29T18:08:45.018Z,21.08
2022-11-29T18:11:50.176Z,18.83
2022-11-29T18:14:53.044Z,15.30
2022-11-29T18:17:56.250Z,13.73
2022-11-29T18:21:00.293Z,13.30
2022-11-29T18:24:05.367Z,12.80
2022-11-29T18:27:08.058Z,13.18
2022-11-29T18:30:11.374Z,12.97
2022-11-29T18:33:14.161Z,13.60
2022-11-29T18:36:22.475Z,13.73
2022-11-29T18:39:26.367Z,13.32
2022-11-29T18:42:29.247Z,12.88
2022-11-29T18:45:37.466Z,12.77
2022-11-29T18:48:41.660Z,12.48
2022-11-29T18:51:45.899Z,12.07
2022-11-29T18:54:49.916Z,11.15
2022-11-29T18:57:55.600Z,10.57
2022-11-29T19:01:06.182Z,10.57
2022-11-29T19:04:17.683Z,12.05
2022-11-29T19:07:20.742Z,10.30
2022-11-29T19:10:23.674Z,10.43
2022-11-29T19:13:27.608Z,11.38
2022-11-29T19:16:32.094Z,12.00
2022-11-29T19:19:35.137Z,13.57
2022-11-29T19:22:38.063Z,11.75
2022-11-29T19:25:41.498Z,11.73
2022-11-29T19:28:45.452Z,12.02
2022-11-29T19:31:50.332Z,12.23
2022-11-29T19:34:53.092Z,12.73
2022-11-29T19:37:56.252Z,13.60
2022-11-29T19:40:59.029Z,11.57
2022-11-29T19:44:04.467Z,11.82
2022-11-29T19:47:07.524Z,13.67
2022-11-29T19:50:10.799Z,13.38
2022-11-29T19:53:15.761Z,13.15
2022-11-29T19:56:20.439Z,12.50
2022-11-29T19:59:24.517Z,12.37
2022-11-29T20:02:29.085Z,12.27
2022-11-29T20:05:32.196Z,13.32
2022-11-29T20:08:35.789Z,12.27
2022-11-29T20:11:39.613Z,12.88
2022-11-29T20:14:42.361Z,13.68
2022-11-29T20:17:48.265Z,12.63
2022-11-29T20:20:52.271Z,13.88
2022-11-29T20:24:00.984Z,14.30
2022-11-29T20:27:04.189Z,13.85
2022-11-29T20:30:09.906Z,13.98
2022-11-29T20:33:16.423Z,13.23
2022-11-29T20:36:22.578Z,11.90
2022-11-29T20:39:34.670Z,13.38
2022-11-29T20:42:59.921Z,14.30
2022-11-29T20:46:02.921Z,13.02
2022-11-29T20:49:07.682Z,13.10
2022-11-29T20:52:28.651Z,12.98
2022-11-29T20:55:31.977Z,12.93
2022-11-29T20:58:36.891Z,12.90
2022-11-29T21:01:41.294Z,11.68
2022-11-29T21:04:44.359Z,13.43
2022-11-29T21:07:47.594Z,11.75
2022-11-29T21:10:51.112Z,13.30
2022-11-29T21:13:54.523Z,12.63
2022-11-29T21:16:57.442Z,12.63
2022-11-29T21:20:00.579Z,12.10
2022-11-29T21:23:11.019Z,11.85
2022-11-29T21:26:18.262Z,12.15
2022-11-29T21:29:23.137Z,11.25
2022-11-29T21:32:27.289Z,13.07
2022-11-29T21:35:29.996Z,11.43
2022-11-29T21:38:33.076Z,10.85
2022-11-29T21:41:36.347Z,12.60
2022-11-29T21:44:39.145Z,12.77
2022-11-29T21:47:42.089Z,11.60
2022-11-29T21:50:49.730Z,10.90
2022-11-29T21:53:52.270Z,11.00
2022-11-29T21:56:55.658Z,12.82
2022-11-29T21:59:58.137Z,10.90
2022-11-29T22:03:00.899Z,12.88
2022-11-29T22:06:09.525Z,10.50
2022-11-29T22:09:12.148Z,11.80
2022-11-29T22:12:33.202Z,11.88
2022-11-29T22:15:36.994Z,11.27
2022-11-29T22:18:40.496Z,11.63
2022-11-29T22:21:45.012Z,10.80
2022-11-29T22:24:48.153Z,10.88
2022-11-29T22:27:50.870Z,11.12
2022-11-29T22:31:07.691Z,10.82
2022-11-29T22:34:10.738Z,11.73
2022-11-29T22:37:13.611Z,12.67
2022-11-29T22:40:17.021Z,11.73
2022-11-29T22:43:19.816Z,11.82
2022-11-29T22:46:24.261Z,11.55
2022-11-29T22:49:27.298Z,11.63
2022-11-29T22:52:29.788Z,10.50
2022-11-29T22:55:32.624Z,11.88
2022-11-29T22:58:35.206Z,10.45
2022-11-29T23:01:39.684Z,10.75
2022-11-29T23:04:44.180Z,10.68
2022-11-29T23:07:47.369Z,12.23
2022-11-29T23:10:59.754Z,11.73
2022-11-29T23:14:02.471Z,11.20
2022-11-29T23:17:04.963Z,11.82
2022-11-29T23:20:08.633Z,11.55
2022-11-29T23:23:11.269Z,10.63
2022-11-29T23:26:22.832Z,10.60
2022-11-29T23:29:25.328Z,11.52
2022-11-29T23:32:28.144Z,11.23
2022-11-29T23:35:30.696Z,12.65
2022-11-29T23:38:34.748Z,10.53
2022-11-29T23:41:37.645Z,11.40
2022-11-29T23:44:40.400Z,11.55
2022-11-29T23:47:43.314Z,10.15
2022-11-29T23:50:46.299Z,10.93
2022-11-29T23:53:53.221Z,10.13
2022-11-29T23:56:56.154Z,11.38
2022-11-29T23:59:58.939Z,10.40
